Time;durP1;ratioP1;P1;durP2;ratioP2;P2;SDS_P1;SDS_P2;PMS_P1;PMS_P2;Temp;Humidity;BMP_temperature;BMP_pressure;BME280_temperature;BME280_humidity;BME280_pressure;Samples;Min_cycle;Max_cycle;Signal;HPM_P1;HPM_P2
2023/08/12 00:00:10;;;;;;;12.33;11.53;;;;;;;;;;5014313;28;20878;-43
2023/08/12 00:02:39;;;;;;;10.53;9.93;;;;;;;;;;5013541;28;20491;-45
2023/08/12 00:05:09;;;;;;;11.10;10.40;;;;;;;;;;5014082;28;20807;-44
2023/08/12 00:07:38;;;;;;;15.37;11.30;;;;;;;;;;5006713;28;20493;-42
2023/08/12 00:10:07;;;;;;;11.00;10.30;;;;;;;;;;5013974;28;20448;-42
2023/08/12 00:12:35;;;;;;;13.27;12.37;;;;;;;;;;5013551;28;20484;-44
2023/08/12 00:15:04;;;;;;;12.20;11.30;;;;;;;;;;5014164;28;20428;-42
2023/08/12 00:17:31;;;;;;;14.17;12.93;;;;;;;;;;5014067;28;20460;-44
2023/08/12 00:20:00;;;;;;;13.90;13.20;;;;;;;;;;5013875;28;20442;-42
2023/08/12 00:22:28;;;;;;;14.50;13.20;;;;;;;;;;5012916;28;20547;-42
2023/08/12 00:24:56;;;;;;;16.80;15.70;;;;;;;;;;5013634;28;20520;-45
2023/08/12 00:27:24;;;;;;;16.77;15.63;;;;;;;;;;5013770;28;21018;-43
2023/08/12 00:29:51;;;;;;;17.03;15.93;;;;;;;;;;5013737;28;20524;-43
2023/08/12 00:32:19;;;;;;;17.60;16.50;;;;;;;;;;5012520;28;20514;-45
2023/08/12 00:34:46;;;;;;;23.07;21.27;;;;;;;;;;5013421;28;20839;-43
2023/08/12 00:37:15;;;;;;;20.27;18.67;;;;;;;;;;5013209;28;20463;-44
2023/08/12 00:39:42;;;;;;;21.00;19.50;;;;;;;;;;5013637;28;20432;-42
2023/08/12 00:42:10;;;;;;;20.07;18.87;;;;;;;;;;5012767;28;20437;-42
2023/08/12 00:44:37;;;;;;;22.40;20.90;;;;;;;;;;5013692;28;20440;-45
2023/08/12 00:47:05;;;;;;;23.60;21.70;;;;;;;;;;5013335;28;20452;-42
2023/08/12 00:49:33;;;;;;;21.30;20.03;;;;;;;;;;5013253;28;20436;-42
2023/08/12 00:52:00;;;;;;;24.30;22.93;;;;;;;;;;5013015;28;20436;-46
2023/08/12 00:54:29;;;;;;;23.33;22.03;;;;;;;;;;5013490;28;20523;-46
2023/08/12 00:56:57;;;;;;;25.83;24.27;;;;;;;;;;5013412;28;20864;-43
2023/08/12 00:59:25;;;;;;;25.30;23.77;;;;;;;;;;5013244;28;20495;-44
2023/08/12 01:01:52;;;;;;;27.97;26.43;;;;;;;;;;5012626;28;20440;-43
2023/08/12 01:04:20;;;;;;;25.30;23.77;;;;;;;;;;5013136;28;20432;-42
2023/08/12 01:06:47;;;;;;;29.43;27.53;;;;;;;;;;5012897;28;20484;-43
2023/08/12 01:09:15;;;;;;;28.17;26.10;;;;;;;;;;5013118;28;20447;-42
2023/08/12 01:11:47;;;;;;;26.97;25.20;;;;;;;;;;5012910;28;20432;-42
2023/08/12 01:14:17;;;;;;;26.37;24.97;;;;;;;;;;5012668;28;20564;-44
2023/08/12 01:16:47;;;;;;;29.27;27.57;;;;;;;;;;5012905;28;20452;-41
2023/08/12 01:19:24;;;;;;;30.70;28.70;;;;;;;;;;5013341;28;20804;-42
2023/08/12 01:21:53;;;;;;;28.67;27.07;;;;;;;;;;5012775;28;20521;-42
2023/08/12 01:24:25;;;;;;;34.83;32.53;;;;;;;;;;5013093;28;20440;-42
2023/08/12 01:26:52;;;;;;;32.20;30.10;;;;;;;;;;5013666;28;20484;-42
2023/08/12 01:29:20;;;;;;;35.60;33.40;;;;;;;;;;5013242;28;20436;-42
2023/08/12 01:31:50;;;;;;;39.50;36.93;;;;;;;;;;5013452;28;20455;-41
2023/08/12 01:34:21;;;;;;;38.10;35.40;;;;;;;;;;5012323;28;20522;-43
2023/08/12 01:36:55;;;;;;;39.57;37.27;;;;;;;;;;5013623;28;20456;-45
2023/08/12 01:39:24;;;;;;;42.13;39.77;;;;;;;;;;5013010;28;20435;-44
2023/08/12 01:41:52;;;;;;;35.90;34.00;;;;;;;;;;5012843;28;20753;-42
2023/08/12 01:44:19;;;;;;;41.83;39.53;;;;;;;;;;5012994;28;20492;-42
2023/08/12 01:46:47;;;;;;;39.03;36.83;;;;;;;;;;5013507;28;20542;-43
2023/08/12 01:49:15;;;;;;;40.13;38.13;;;;;;;;;;5012921;28;20456;-45
2023/08/12 01:51:42;;;;;;;41.30;39.00;;;;;;;;;;5012640;28;20495;-44
2023/08/12 01:54:10;;;;;;;44.67;42.10;;;;;;;;;;5012195;28;20481;-46
2023/08/12 01:56:39;;;;;;;46.87;44.27;;;;;;;;;;5012573;28;20518;-45
2023/08/12 01:59:06;;;;;;;48.50;45.90;;;;;;;;;;5012296;28;20947;-44
2023/08/12 02:01:34;;;;;;;43.67;41.43;;;;;;;;;;5012826;28;20505;-45
2023/08/12 02:04:01;;;;;;;48.43;45.90;;;;;;;;;;5012053;28;20503;-41
2023/08/12 02:06:29;;;;;;;47.67;45.10;;;;;;;;;;5012893;28;21002;-44
2023/08/12 02:08:57;;;;;;;47.13;44.60;;;;;;;;;;5012630;28;20436;-46
2023/08/12 02:11:24;;;;;;;52.27;48.97;;;;;;;;;;5012701;28;20939;-44
2023/08/12 02:13:53;;;;;;;47.10;44.70;;;;;;;;;;5012915;28;20813;-41
2023/08/12 02:16:21;;;;;;;51.17;48.23;;;;;;;;;;5012579;28;20456;-42
2023/08/12 02:18:48;;;;;;;53.97;51.07;;;;;;;;;;5012859;28;20448;-41
2023/08/12 02:21:16;;;;;;;48.57;46.13;;;;;;;;;;5012336;28;20498;-44
2023/08/12 02:23:44;;;;;;;49.60;46.90;;;;;;;;;;5012184;28;20547;-44
2023/08/12 02:26:11;;;;;;;48.73;46.13;;;;;;;;;;5012385;28;20539;-41
2023/08/12 02:28:39;;;;;;;52.13;49.30;;;;;;;;;;5012681;28;20443;-42
2023/08/12 02:31:08;;;;;;;48.73;46.10;;;;;;;;;;5012596;28;20443;-43
2023/08/12 02:33:35;;;;;;;54.83;51.27;;;;;;;;;;5011903;28;20477;-43
2023/08/12 02:36:03;;;;;;;54.03;50.20;;;;;;;;;;5012603;28;20548;-42
2023/08/12 02:38:30;;;;;;;53.60;50.60;;;;;;;;;;5012592;28;20440;-43
2023/08/12 02:40:58;;;;;;;60.40;56.80;;;;;;;;;;5012560;28;20460;-41
2023/08/12 02:43:25;;;;;;;55.23;51.90;;;;;;;;;;5011776;28;20464;-45
2023/08/12 02:45:53;;;;;;;58.83;55.43;;;;;;;;;;5011929;28;20572;-42
2023/08/12 02:48:22;;;;;;;62.00;58.03;;;;;;;;;;5012428;28;20436;-43
2023/08/12 02:50:49;;;;;;;62.33;58.63;;;;;;;;;;5012536;28;20535;-44
2023/08/12 02:53:17;;;;;;;59.90;55.90;;;;;;;;;;5011811;28;20529;-42
2023/08/12 02:55:45;;;;;;;59.87;55.97;;;;;;;;;;5012448;28;20839;-42
2023/08/12 02:58:13;;;;;;;63.63;59.37;;;;;;;;;;5012380;28;20428;-47
2023/08/12 03:00:42;;;;;;;59.93;55.93;;;;;;;;;;5012290;28;20436;-44
2023/08/12 03:03:09;;;;;;;58.60;54.90;;;;;;;;;;5011326;28;20499;-46
2023/08/12 03:05:38;;;;;;;60.60;57.00;;;;;;;;;;5012138;28;20827;-47
2023/08/12 03:08:06;;;;;;;62.33;58.53;;;;;;;;;;5013205;28;20877;-45
2023/08/12 03:10:34;;;;;;;60.13;56.53;;;;;;;;;;5015704;28;20456;-45
2023/08/12 03:13:01;;;;;;;60.80;57.30;;;;;;;;;;5015423;28;21045;-47
2023/08/12 03:15:29;;;;;;;62.07;58.10;;;;;;;;;;5015617;28;20476;-43
2023/08/12 03:17:56;;;;;;;62.00;57.70;;;;;;;;;;5015861;28;20934;-43
2023/08/12 03:20:24;;;;;;;56.27;53.07;;;;;;;;;;5016079;28;21003;-43
2023/08/12 03:22:53;;;;;;;66.43;62.00;;;;;;;;;;5014931;28;20457;-43
2023/08/12 03:25:20;;;;;;;61.30;57.40;;;;;;;;;;5015845;28;20506;-41
2023/08/12 03:27:48;;;;;;;60.10;56.50;;;;;;;;;;5016212;28;20459;-42
2023/08/12 03:30:15;;;;;;;62.30;58.63;;;;;;;;;;5016018;28;20984;-43
2023/08/12 03:32:43;;;;;;;63.17;58.73;;;;;;;;;;5015472;28;20873;-41
2023/08/12 03:35:10;;;;;;;66.57;62.03;;;;;;;;;;5014707;28;20475;-41
2023/08/12 03:37:38;;;;;;;61.87;58.10;;;;;;;;;;5014712;28;20502;-42
2023/08/12 03:40:08;;;;;;;65.17;60.93;;;;;;;;;;5014680;28;20453;-42
2023/08/12 03:42:35;;;;;;;69.27;64.53;;;;;;;;;;5013886;28;20456;-44
2023/08/12 03:45:03;;;;;;;74.80;69.60;;;;;;;;;;5014653;28;20495;-42
2023/08/12 03:47:30;;;;;;;60.83;57.13;;;;;;;;;;5014612;28;20551;-43
2023/08/12 03:49:58;;;;;;;69.83;65.50;;;;;;;;;;5014579;28;20440;-43
2023/08/12 03:52:26;;;;;;;63.10;59.60;;;;;;;;;;5013797;28;20453;-44
2023/08/12 03:54:53;;;;;;;56.50;53.60;;;;;;;;;;5011960;28;20878;-41
2023/08/12 03:57:22;;;;;;;61.43;58.00;;;;;;;;;;5012703;28;20540;-42
2023/08/12 03:59:50;;;;;;;71.60;67.57;;;;;;;;;;5014133;28;20441;-42
2023/08/12 04:02:17;;;;;;;67.33;62.87;;;;;;;;;;5013142;28;20464;-42
2023/08/12 04:04:45;;;;;;;67.70;63.40;;;;;;;;;;5013803;28;20483;-42
2023/08/12 04:07:12;;;;;;;60.30;56.80;;;;;;;;;;5013878;28;20477;-43
2023/08/12 04:09:40;;;;;;;65.30;61.57;;;;;;;;;;5013880;28;20509;-43
2023/08/12 04:12:08;;;;;;;62.43;58.93;;;;;;;;;;5009531;28;20931;-42
2023/08/12 04:14:37;;;;;;;57.43;54.33;;;;;;;;;;5013635;28;20511;-43
2023/08/12 04:17:04;;;;;;;63.70;60.10;;;;;;;;;;5013688;28;20503;-44
2023/08/12 04:19:32;;;;;;;62.37;58.80;;;;;;;;;;5013383;28;20850;-43
2023/08/12 04:21:59;;;;;;;60.20;56.90;;;;;;;;;;5012894;28;20506;-42
2023/08/12 04:24:27;;;;;;;59.53;56.13;;;;;;;;;;5001607;28;20445;-44
2023/08/12 04:26:54;;;;;;;59.47;56.00;;;;;;;;;;5013766;28;20453;-42
2023/08/12 04:29:22;;;;;;;59.97;56.57;;;;;;;;;;5013731;28;20524;-43
2023/08/12 04:31:52;;;;;;;64.10;60.73;;;;;;;;;;5013275;28;20436;-42
2023/08/12 04:34:20;;;;;;;60.37;57.30;;;;;;;;;;5012849;28;20479;-42
2023/08/12 04:36:47;;;;;;;60.73;57.63;;;;;;;;;;5013025;28;21010;-41
2023/08/12 04:39:14;;;;;;;60.67;57.27;;;;;;;;;;5012972;28;20440;-42
2023/08/12 04:41:42;;;;;;;65.30;60.87;;;;;;;;;;5012931;28;20443;-42
2023/08/12 04:44:09;;;;;;;65.03;61.13;;;;;;;;;;5012959;28;20470;-42
2023/08/12 04:46:37;;;;;;;69.10;65.30;;;;;;;;;;5013021;28;20458;-41
2023/08/12 04:49:06;;;;;;;70.77;66.33;;;;;;;;;;5013002;28;20442;-41
2023/08/12 04:51:34;;;;;;;62.57;59.10;;;;;;;;;;5012809;28;20439;-41
2023/08/12 04:54:02;;;;;;;61.30;58.00;;;;;;;;;;5012095;28;20518;-41
2023/08/12 04:56:29;;;;;;;70.77;66.37;;;;;;;;;;5012625;28;20472;-44
2023/08/12 04:58:57;;;;;;;63.10;59.80;;;;;;;;;;5010431;28;20437;-44
2023/08/12 05:01:24;;;;;;;61.67;58.43;;;;;;;;;;5010477;28;20460;-41
2023/08/12 05:03:52;;;;;;;75.13;70.20;;;;;;;;;;5012234;28;20511;-42
2023/08/12 05:06:21;;;;;;;71.07;66.67;;;;;;;;;;5012514;28;20459;-41
2023/08/12 05:08:48;;;;;;;66.60;62.67;;;;;;;;;;5012167;28;21017;-41
2023/08/12 05:11:16;;;;;;;68.27;63.97;;;;;;;;;;5012708;28;20445;-42
2023/08/12 05:13:44;;;;;;;66.00;62.47;;;;;;;;;;5010216;28;20466;-41
2023/08/12 05:16:14;;;;;;;63.47;60.17;;;;;;;;;;5012007;28;20542;-42
2023/08/12 05:18:41;;;;;;;62.70;59.40;;;;;;;;;;5012722;28;20442;-42
2023/08/12 05:21:09;;;;;;;71.83;67.73;;;;;;;;;;5012703;28;20483;-40
2023/08/12 05:23:38;;;;;;;64.53;61.03;;;;;;;;;;5011236;28;20551;-41
2023/08/12 05:26:05;;;;;;;63.37;60.17;;;;;;;;;;5012534;28;20457;-41
2023/08/12 05:28:33;;;;;;;69.80;66.40;;;;;;;;;;5012237;28;20472;-42
2023/08/12 05:31:00;;;;;;;66.97;63.27;;;;;;;;;;5011086;28;20515;-42
2023/08/12 05:33:28;;;;;;;69.43;65.63;;;;;;;;;;5011859;28;20456;-42
2023/08/12 05:35:55;;;;;;;74.20;70.13;;;;;;;;;;5011990;28;20559;-42
2023/08/12 05:38:23;;;;;;;67.97;64.37;;;;;;;;;;5011683;28;20511;-42
2023/08/12 05:40:51;;;;;;;62.43;59.23;;;;;;;;;;5010466;28;20479;-42
2023/08/12 05:43:19;;;;;;;65.73;62.30;;;;;;;;;;5011667;28;20914;-42
2023/08/12 05:45:46;;;;;;;65.83;62.50;;;;;;;;;;5011795;28;20465;-42
2023/08/12 05:48:14;;;;;;;63.77;60.57;;;;;;;;;;5012192;28;20439;-42
2023/08/12 05:50:42;;;;;;;63.87;60.50;;;;;;;;;;5012055;28;20507;-42
2023/08/12 05:53:09;;;;;;;64.13;61.13;;;;;;;;;;5011529;28;20543;-43
2023/08/12 05:55:37;;;;;;;64.23;60.70;;;;;;;;;;5008270;28;20570;-42
2023/08/12 05:58:06;;;;;;;64.73;61.30;;;;;;;;;;5010531;28;20439;-42
2023/08/12 06:00:34;;;;;;;61.50;58.60;;;;;;;;;;5010249;28;20448;-44
2023/08/12 06:03:01;;;;;;;63.00;59.70;;;;;;;;;;5008175;28;20862;-42
2023/08/12 06:05:29;;;;;;;64.13;60.73;;;;;;;;;;5010959;28;20441;-42
2023/08/12 06:07:56;;;;;;;63.97;60.57;;;;;;;;;;5010778;28;20425;-43
2023/08/12 06:10:24;;;;;;;59.23;56.27;;;;;;;;;;5009846;28;20436;-43
2023/08/12 06:12:51;;;;;;;60.50;56.90;;;;;;;;;;5008237;28;20464;-43
2023/08/12 06:15:20;;;;;;;56.10;53.10;;;;;;;;;;5010585;28;20436;-42
2023/08/12 06:17:48;;;;;;;53.97;51.30;;;;;;;;;;5009984;28;20457;-42
2023/08/12 06:20:15;;;;;;;56.47;53.30;;;;;;;;;;5009557;28;20455;-42
2023/08/12 06:22:43;;;;;;;54.70;51.63;;;;;;;;;;5009112;28;20465;-42
2023/08/12 06:25:10;;;;;;;53.50;50.50;;;;;;;;;;5009975;28;20433;-42
2023/08/12 06:27:38;;;;;;;54.00;50.90;;;;;;;;;;5010596;28;20540;-41
2023/08/12 06:30:06;;;;;;;53.90;50.90;;;;;;;;;;5009953;28;20811;-42
2023/08/12 06:32:35;;;;;;;54.27;50.47;;;;;;;;;;5005738;28;20464;-42
2023/08/12 06:35:03;;;;;;;52.77;49.27;;;;;;;;;;5010639;28;20436;-41
2023/08/12 06:37:31;;;;;;;54.23;50.80;;;;;;;;;;5010181;28;20492;-42
2023/08/12 06:39:58;;;;;;;52.13;48.20;;;;;;;;;;5009808;28;20515;-42
2023/08/12 06:42:26;;;;;;;41.03;37.70;;;;;;;;;;5011104;28;20575;-42
2023/08/12 06:44:55;;;;;;;40.80;37.80;;;;;;;;;;5014001;28;21001;-43
2023/08/12 06:47:23;;;;;;;40.40;37.80;;;;;;;;;;5014470;28;20464;-43
2023/08/12 06:49:52;;;;;;;34.77;32.77;;;;;;;;;;5013394;28;20938;-45
2023/08/12 06:52:19;;;;;;;38.03;35.33;;;;;;;;;;5011778;28;20464;-42
2023/08/12 06:54:47;;;;;;;37.77;35.03;;;;;;;;;;5014084;28;20875;-42
2023/08/12 06:57:14;;;;;;;37.97;35.47;;;;;;;;;;5014359;28;20476;-46
2023/08/12 06:59:42;;;;;;;37.37;35.07;;;;;;;;;;5013467;28;20432;-44
2023/08/12 07:02:09;;;;;;;36.93;35.03;;;;;;;;;;5012339;28;20432;-42
2023/08/12 07:04:37;;;;;;;38.80;36.20;;;;;;;;;;5013671;28;20451;-43
2023/08/12 07:07:06;;;;;;;39.57;36.93;;;;;;;;;;5014271;28;20456;-42
2023/08/12 07:09:34;;;;;;;42.50;39.60;;;;;;;;;;5013162;28;20459;-43
2023/08/12 07:12:01;;;;;;;44.47;41.73;;;;;;;;;;5013140;28;20437;-43
2023/08/12 07:14:29;;;;;;;41.20;38.30;;;;;;;;;;5012474;28;20444;-42
2023/08/12 07:16:57;;;;;;;40.53;38.13;;;;;;;;;;5013273;28;20556;-47
2023/08/12 07:19:24;;;;;;;39.10;36.80;;;;;;;;;;5013029;28;20495;-43
2023/08/12 07:21:52;;;;;;;39.17;36.73;;;;;;;;;;5013151;28;20740;-43
2023/08/12 07:24:21;;;;;;;36.93;34.93;;;;;;;;;;5013512;28;20432;-40
2023/08/12 07:26:48;;;;;;;37.00;34.80;;;;;;;;;;5010837;28;21042;-44
2023/08/12 07:29:16;;;;;;;39.40;36.90;;;;;;;;;;5012705;28;20954;-45
2023/08/12 07:31:43;;;;;;;41.17;38.87;;;;;;;;;;5012877;28;20472;-43
2023/08/12 07:34:12;;;;;;;37.47;35.23;;;;;;;;;;5012503;28;21170;-45
2023/08/12 07:36:40;;;;;;;41.23;38.40;;;;;;;;;;5013867;28;20487;-41
2023/08/12 07:39:08;;;;;;;42.70;39.90;;;;;;;;;;5013185;28;20522;-41
2023/08/12 07:41:37;;;;;;;37.73;35.60;;;;;;;;;;5012916;28;20440;-41
2023/08/12 07:44:05;;;;;;;41.03;38.43;;;;;;;;;;5012486;28;21048;-42
2023/08/12 07:46:32;;;;;;;41.80;38.90;;;;;;;;;;5013497;28;20460;-44
2023/08/12 07:49:00;;;;;;;40.90;38.03;;;;;;;;;;5013300;28;20536;-44
2023/08/12 07:51:27;;;;;;;37.30;35.13;;;;;;;;;;5012663;28;20860;-41
2023/08/12 07:53:55;;;;;;;36.30;34.23;;;;;;;;;;5011848;28;20472;-43
2023/08/12 07:56:22;;;;;;;39.00;36.53;;;;;;;;;;5013279;28;20456;-43
2023/08/12 07:58:51;;;;;;;40.97;38.13;;;;;;;;;;5012779;28;20880;-44
2023/08/12 08:01:19;;;;;;;42.33;39.80;;;;;;;;;;5012815;28;20472;-43
2023/08/12 08:03:46;;;;;;;41.73;39.00;;;;;;;;;;5011627;28;20476;-44
2023/08/12 08:06:14;;;;;;;43.67;41.10;;;;;;;;;;5012662;28;20978;-42
2023/08/12 08:08:41;;;;;;;41.33;38.63;;;;;;;;;;5012471;28;20443;-43
2023/08/12 08:11:09;;;;;;;36.90;34.80;;;;;;;;;;5012465;28;20465;-41
2023/08/12 08:13:36;;;;;;;39.10;36.57;;;;;;;;;;5011865;28;20524;-41
2023/08/12 08:16:05;;;;;;;34.13;31.70;;;;;;;;;;5012978;28;20453;-42
2023/08/12 08:18:32;;;;;;;38.50;36.07;;;;;;;;;;5012923;28;20479;-42
2023/08/12 08:21:00;;;;;;;39.23;36.83;;;;;;;;;;5013379;28;20946;-41
2023/08/12 08:23:32;;;;;;;34.90;32.60;;;;;;;;;;5012323;28;20464;-44
2023/08/12 08:25:59;;;;;;;37.97;35.70;;;;;;;;;;5012945;28;20490;-44
2023/08/12 08:28:27;;;;;;;40.77;38.03;;;;;;;;;;5013316;28;20446;-41
2023/08/12 08:30:55;;;;;;;40.20;37.87;;;;;;;;;;5013075;28;20842;-41
2023/08/12 08:33:24;;;;;;;32.23;30.10;;;;;;;;;;5011210;28;20500;-41
2023/08/12 08:35:51;;;;;;;38.33;35.97;;;;;;;;;;5013201;28;20452;-41
2023/08/12 08:38:19;;;;;;;36.47;34.30;;;;;;;;;;5013105;28;20468;-41
2023/08/12 08:40:46;;;;;;;37.97;35.43;;;;;;;;;;5013272;28;20807;-42
2023/08/12 08:43:15;;;;;;;38.03;35.83;;;;;;;;;;5012253;28;20460;-40
2023/08/12 08:45:44;;;;;;;35.47;33.23;;;;;;;;;;5012943;28;20452;-42
2023/08/12 08:48:12;;;;;;;30.90;29.20;;;;;;;;;;5012972;28;20432;-41
2023/08/12 08:50:42;;;;;;;33.07;31.07;;;;;;;;;;5012863;28;21080;-41
2023/08/12 08:53:10;;;;;;;32.87;30.97;;;;;;;;;;5012416;28;20870;-41
2023/08/12 08:55:37;;;;;;;29.70;27.77;;;;;;;;;;5012418;28;20456;-42
2023/08/12 08:58:05;;;;;;;28.80;27.20;;;;;;;;;;5012813;28;20508;-44
2023/08/12 09:00:33;;;;;;;30.30;28.40;;;;;;;;;;5012571;28;20429;-42
2023/08/12 09:03:00;;;;;;;28.20;26.40;;;;;;;;;;5012059;28;20489;-43
2023/08/12 09:05:28;;;;;;;31.53;29.50;;;;;;;;;;5011413;28;20438;-42
2023/08/12 09:07:59;;;;;;;27.80;26.13;;;;;;;;;;5012359;28;20462;-42
2023/08/12 09:10:27;;;;;;;27.77;26.00;;;;;;;;;;5012203;28;20436;-42
2023/08/12 09:12:56;;;;;;;28.90;27.30;;;;;;;;;;5011763;28;21025;-41
2023/08/12 09:15:24;;;;;;;26.07;24.47;;;;;;;;;;5012446;28;20483;-41
2023/08/12 09:17:51;;;;;;;30.00;28.20;;;;;;;;;;5012460;28;20477;-41
2023/08/12 09:20:20;;;;;;;27.70;26.00;;;;;;;;;;5012441;28;20471;-41
2023/08/12 09:22:55;;;;;;;29.77;27.87;;;;;;;;;;5011320;28;20511;-41
2023/08/12 09:25:24;;;;;;;25.20;23.90;;;;;;;;;;5012192;28;20460;-41
2023/08/12 09:27:54;;;;;;;27.17;25.50;;;;;;;;;;5011141;28;20552;-42
2023/08/12 09:30:22;;;;;;;23.07;21.87;;;;;;;;;;5011990;28;20472;-44
2023/08/12 09:32:58;;;;;;;23.80;22.50;;;;;;;;;;5011128;28;20565;-41
2023/08/12 09:35:31;;;;;;;24.00;22.47;;;;;;;;;;5012287;28;20428;-42
2023/08/12 09:38:03;;;;;;;21.67;20.27;;;;;;;;;;5011675;28;20472;-42
2023/08/12 09:40:32;;;;;;;17.83;16.83;;;;;;;;;;5011343;28;20479;-41
2023/08/12 09:43:00;;;;;;;17.10;16.10;;;;;;;;;;5010624;28;20492;-42
2023/08/12 09:45:28;;;;;;;18.40;17.20;;;;;;;;;;5011687;28;20447;-41
2023/08/12 09:47:55;;;;;;;15.17;14.17;;;;;;;;;;5016963;28;20433;-43
2023/08/12 09:50:24;;;;;;;16.57;15.40;;;;;;;;;;5022256;28;20483;-44
2023/08/12 09:52:54;;;;;;;12.77;12.07;;;;;;;;;;5017957;28;20465;-49
2023/08/12 09:55:22;;;;;;;14.23;13.23;;;;;;;;;;5020285;28;20487;-42
2023/08/12 09:57:53;;;;;;;12.40;11.40;;;;;;;;;;5019430;28;20756;-42
2023/08/12 10:00:21;;;;;;;11.87;11.00;;;;;;;;;;5021517;28;20200;-42
2023/08/12 10:02:49;;;;;;;12.73;11.70;;;;;;;;;;5019585;28;20247;-44
2023/08/12 10:05:20;;;;;;;12.50;11.40;;;;;;;;;;5020612;28;20208;-43
2023/08/12 10:07:48;;;;;;;11.97;10.87;;;;;;;;;;5019743;28;20190;-44
2023/08/12 10:10:16;;;;;;;11.00;10.30;;;;;;;;;;5020957;28;20264;-48
2023/08/12 10:12:44;;;;;;;12.13;11.27;;;;;;;;;;5020641;28;20752;-46
2023/08/12 10:15:13;;;;;;;11.57;10.67;;;;;;;;;;5020785;28;20228;-45
2023/08/12 10:17:41;;;;;;;11.00;10.10;;;;;;;;;;5020759;28;20308;-47
2023/08/12 10:20:13;;;;;;;10.13;9.33;;;;;;;;;;5021380;28;20265;-42
2023/08/12 10:22:43;;;;;;;10.00;9.20;;;;;;;;;;5020313;28;20771;-42
2023/08/12 10:25:14;;;;;;;9.67;9.07;;;;;;;;;;5021952;28;20619;-41
2023/08/12 10:27:42;;;;;;;10.50;9.60;;;;;;;;;;5021021;28;20332;-42
2023/08/12 10:30:10;;;;;;;9.47;8.80;;;;;;;;;;5022453;28;20285;-45
2023/08/12 10:32:39;;;;;;;8.33;7.80;;;;;;;;;;5021850;28;20227;-43
2023/08/12 10:35:08;;;;;;;7.33;6.93;;;;;;;;;;5021731;28;20197;-42
2023/08/12 10:37:36;;;;;;;12.10;8.00;;;;;;;;;;5021133;28;20261;-41
2023/08/12 10:40:05;;;;;;;8.20;7.60;;;;;;;;;;5021882;28;20208;-42
2023/08/12 10:42:41;;;;;;;8.77;7.63;;;;;;;;;;5020744;28;20691;-42
2023/08/12 10:45:09;;;;;;;8.00;7.50;;;;;;;;;;5022027;28;20232;-48
2023/08/12 10:47:43;;;;;;;8.57;7.77;;;;;;;;;;5020971;28;20237;-44
2023/08/12 10:50:18;;;;;;;7.10;6.60;;;;;;;;;;5021478;28;20252;-43
2023/08/12 10:52:46;;;;;;;7.10;6.60;;;;;;;;;;5020361;28;20224;-43
2023/08/12 10:55:20;;;;;;;7.30;6.80;;;;;;;;;;5020874;28;20197;-44
2023/08/12 10:57:49;;;;;;;9.20;6.67;;;;;;;;;;5020614;28;20201;-47
2023/08/12 11:00:17;;;;;;;8.30;7.70;;;;;;;;;;5020301;28;20202;-42
2023/08/12 11:02:51;;;;;;;8.17;7.37;;;;;;;;;;5019364;28;20225;-41
2023/08/12 11:05:19;;;;;;;8.70;8.10;;;;;;;;;;5020884;28;20268;-43
2023/08/12 11:07:48;;;;;;;7.90;7.40;;;;;;;;;;5020899;28;20432;-42
2023/08/12 11:10:17;;;;;;;8.60;8.00;;;;;;;;;;5020349;28;20463;-44
2023/08/12 11:12:49;;;;;;;8.13;7.63;;;;;;;;;;5017902;28;21022;-44
2023/08/12 11:15:16;;;;;;;9.20;8.30;;;;;;;;;;5019201;28;20471;-44
2023/08/12 11:17:46;;;;;;;8.70;8.03;;;;;;;;;;5019135;28;20922;-42
2023/08/12 11:20:15;;;;;;;8.33;7.63;;;;;;;;;;5019609;28;20967;-43
2023/08/12 11:22:45;;;;;;;7.67;7.17;;;;;;;;;;5018284;28;20487;-42
2023/08/12 11:25:13;;;;;;;8.17;7.67;;;;;;;;;;5019235;28;20500;-44
2023/08/12 11:27:41;;;;;;;7.93;7.33;;;;;;;;;;5019195;28;20449;-48
2023/08/12 11:30:10;;;;;;;9.40;8.70;;;;;;;;;;5021626;28;21064;-43
2023/08/12 11:32:38;;;;;;;9.23;8.63;;;;;;;;;;5022093;28;20460;-42
2023/08/12 11:35:07;;;;;;;9.90;9.20;;;;;;;;;;5022777;28;20443;-43
2023/08/12 11:37:37;;;;;;;10.40;9.50;;;;;;;;;;5022897;28;20456;-42
2023/08/12 11:40:06;;;;;;;9.43;8.73;;;;;;;;;;5021820;28;20487;-43
2023/08/12 11:42:33;;;;;;;8.93;8.33;;;;;;;;;;5021829;28;20470;-42
2023/08/12 11:45:01;;;;;;;9.03;8.43;;;;;;;;;;5022389;28;20443;-47
2023/08/12 11:47:28;;;;;;;8.10;7.53;;;;;;;;;;5022126;28;20503;-44
2023/08/12 11:49:56;;;;;;;8.10;7.70;;;;;;;;;;5021905;28;20476;-42
2023/08/12 11:52:24;;;;;;;8.67;8.00;;;;;;;;;;5022212;28;20456;-45
2023/08/12 11:54:53;;;;;;;7.60;6.90;;;;;;;;;;5022419;28;20523;-47
2023/08/12 11:57:22;;;;;;;8.93;8.27;;;;;;;;;;5022512;28;20457;-44
2023/08/12 11:59:50;;;;;;;8.63;8.07;;;;;;;;;;5022465;28;20519;-43
2023/08/12 12:02:18;;;;;;;8.57;8.00;;;;;;;;;;5021288;28;20539;-42
2023/08/12 12:04:45;;;;;;;8.60;8.07;;;;;;;;;;5021811;28;20469;-46
2023/08/12 12:07:20;;;;;;;9.13;8.60;;;;;;;;;;5022104;28;20488;-43
2023/08/12 12:09:47;;;;;;;8.97;8.47;;;;;;;;;;5021963;28;20467;-44
2023/08/12 12:12:17;;;;;;;9.57;8.90;;;;;;;;;;5021362;28;20465;-41
2023/08/12 12:14:44;;;;;;;10.00;9.50;;;;;;;;;;5021902;28;20531;-45
2023/08/12 12:17:13;;;;;;;9.60;9.07;;;;;;;;;;5021792;28;20866;-43
2023/08/12 12:19:41;;;;;;;9.73;9.13;;;;;;;;;;5021303;28;20432;-44
2023/08/12 12:22:09;;;;;;;12.33;11.40;;;;;;;;;;5019973;28;20437;-49
2023/08/12 12:24:44;;;;;;;12.43;11.37;;;;;;;;;;5021646;28;20444;-43
2023/08/12 12:27:12;;;;;;;13.60;12.30;;;;;;;;;;5021992;28;20456;-41
2023/08/12 12:29:41;;;;;;;14.17;13.07;;;;;;;;;;5021959;28;21099;-44
2023/08/12 12:32:09;;;;;;;13.77;12.87;;;;;;;;;;5020067;28;20453;-42
2023/08/12 12:34:37;;;;;;;13.57;12.40;;;;;;;;;;5021511;28;20437;-46
2023/08/12 12:37:04;;;;;;;14.50;13.23;;;;;;;;;;5021303;28;20464;-44
2023/08/12 12:39:32;;;;;;;12.30;11.50;;;;;;;;;;5019861;28;21006;-44
2023/08/12 12:41:59;;;;;;;13.73;12.53;;;;;;;;;;5019975;28;20441;-42
2023/08/12 12:44:27;;;;;;;15.37;14.23;;;;;;;;;;5019825;28;20462;-44
2023/08/12 12:46:56;;;;;;;14.07;13.30;;;;;;;;;;5020704;28;20523;-43
2023/08/12 12:49:24;;;;;;;15.53;14.17;;;;;;;;;;5018173;28;20472;-41
2023/08/12 12:51:51;;;;;;;17.90;16.60;;;;;;;;;;5019849;28;20436;-43
2023/08/12 12:54:19;;;;;;;17.03;16.03;;;;;;;;;;5021049;28;20429;-42
2023/08/12 12:56:46;;;;;;;16.07;15.23;;;;;;;;;;5021003;28;20452;-41
2023/08/12 12:59:14;;;;;;;16.90;15.90;;;;;;;;;;5020463;28;20444;-43
2023/08/12 13:01:42;;;;;;;15.60;14.80;;;;;;;;;;5021087;28;20437;-44
2023/08/12 13:04:11;;;;;;;17.30;16.30;;;;;;;;;;5020091;28;20465;-41
2023/08/12 13:06:39;;;;;;;18.30;17.07;;;;;;;;;;5013229;28;21042;-41
2023/08/12 13:09:07;;;;;;;17.77;16.77;;;;;;;;;;5020350;28;20494;-43
2023/08/12 13:11:35;;;;;;;19.50;18.30;;;;;;;;;;5020346;28;20845;-41
2023/08/12 13:14:03;;;;;;;18.47;17.17;;;;;;;;;;5020259;28;20495;-42
2023/08/12 13:16:30;;;;;;;19.53;18.33;;;;;;;;;;5021270;28;20464;-42
2023/08/12 13:18:59;;;;;;;20.87;19.80;;;;;;;;;;5021514;28;20544;-41
2023/08/12 13:21:28;;;;;;;20.30;19.00;;;;;;;;;;5021394;28;20416;-42
2023/08/12 13:23:56;;;;;;;19.03;17.90;;;;;;;;;;5020125;28;20457;-41
2023/08/12 13:26:23;;;;;;;19.33;18.10;;;;;;;;;;5019641;28;20519;-41
2023/08/12 13:28:51;;;;;;;20.80;19.50;;;;;;;;;;5020604;28;20527;-46
2023/08/12 13:31:18;;;;;;;19.23;18.17;;;;;;;;;;5020675;28;20896;-42
2023/08/12 13:33:46;;;;;;;21.23;19.93;;;;;;;;;;5020612;28;20460;-43
2023/08/12 13:36:13;;;;;;;24.20;22.60;;;;;;;;;;5021351;28;20488;-42
2023/08/12 13:38:42;;;;;;;22.00;20.70;;;;;;;;;;5020370;28;20483;-41
2023/08/12 13:41:10;;;;;;;20.40;19.33;;;;;;;;;;5020264;28;20501;-45
2023/08/12 13:43:38;;;;;;;24.13;22.77;;;;;;;;;;5019684;28;20499;-43
2023/08/12 13:46:05;;;;;;;27.17;25.43;;;;;;;;;;5021177;28;20456;-41
2023/08/12 13:48:34;;;;;;;24.50;21.83;;;;;;;;;;5020436;28;20467;-40
2023/08/12 13:51:03;;;;;;;26.50;19.67;;;;;;;;;;5020287;28;20477;-43
2023/08/12 13:53:30;;;;;;;21.30;19.10;;;;;;;;;;5020861;28;20468;-45
2023/08/12 13:55:59;;;;;;;21.93;20.00;;;;;;;;;;5020378;28;20452;-41
2023/08/12 13:58:27;;;;;;;20.97;19.37;;;;;;;;;;5020072;28;20429;-41
2023/08/12 14:00:54;;;;;;;21.47;19.63;;;;;;;;;;5019588;28;20922;-40
2023/08/12 14:03:22;;;;;;;20.20;18.50;;;;;;;;;;5017418;28;20532;-41
2023/08/12 14:05:49;;;;;;;18.97;18.10;;;;;;;;;;5020775;28;20487;-43
2023/08/12 14:08:17;;;;;;;20.80;19.63;;;;;;;;;;5019995;28;20425;-41
2023/08/12 14:10:46;;;;;;;19.07;18.17;;;;;;;;;;5020713;28;20472;-42
2023/08/12 14:13:15;;;;;;;19.63;18.53;;;;;;;;;;5018312;28;20464;-44
2023/08/12 14:15:42;;;;;;;20.53;19.50;;;;;;;;;;5019002;28;20456;-45
2023/08/12 14:18:10;;;;;;;19.70;18.77;;;;;;;;;;5019747;28;20440;-42
2023/08/12 14:20:38;;;;;;;21.00;19.80;;;;;;;;;;5021167;28;20432;-44
2023/08/12 14:23:05;;;;;;;19.53;18.53;;;;;;;;;;5019662;28;20571;-43
2023/08/12 14:25:33;;;;;;;19.53;18.63;;;;;;;;;;5019443;28;20997;-45